Chitose — JD2925 — position and weather

sailwx.info

Track history (hours):
 
Tides and Currents Weather Stations Pressure Air Temp Water Temp Dewpoint Dewpoint Depression Visibility Wind Speed Wind Dir Waves Ship Positions

Chitose

Last reported at 2017-Dec-11 17:01 UTC. Time now 2017-Dec-12 10:19 UTC.
Position N 35°24' E 139°41'.

Length 33 m; draft 3.8 m.

Type: Tug. MMSI: 431000953.

Date/timePositionNaut miles runAvg speedWind from/ knotsBaromVisibWave heightAir tempDewpointWater temp
2017-Dec-11 17:01N 35°24' E 139°41'0 0.0
2017-Dec-11 16:31N 35°24' E 139°41'0 0.1
2017-Dec-11 16:01N 35°24' E 139°41'0 0.1
2017-Dec-11 15:31N 35°24' E 139°41'1 1.9
2017-Dec-11 15:01N 35°24' E 139°42'4 7.5
2017-Dec-11 14:31N 35°27' E 139°40'2 4.4
2017-Dec-11 14:00N 35°28' E 139°42'0 0.0
2017-Dec-11 13:30N 35°28' E 139°42'0 0.0
2017-Dec-11 13:01N 35°28' E 139°42'2 4.1
2017-Dec-11 12:31N 35°28' E 139°45'1 1.0
2017-Dec-11 12:00N 35°29' E 139°44'0 0.3
2017-Dec-11 11:30N 35°29' E 139°45'1 2.7
2017-Dec-11 11:00N 35°28' E 139°46'0 0.5
2017-Dec-11 10:31N 35°28' E 139°46'1 2.4
2017-Dec-11 10:01N 35°29' E 139°45'0 0.3
2017-Dec-11 09:31N 35°29' E 139°44'2 3.3
2017-Dec-11 09:00N 35°27' E 139°44'3 6.0
2017-Dec-11 08:31N 35°25' E 139°42'1 1.7
2017-Dec-11 08:00N 35°25' E 139°41'0 0.1
2017-Dec-11 07:31N 35°25' E 139°41'1 1.5
2017-Dec-11 07:00N 35°26' E 139°42'0 0.0
2017-Dec-11 06:30N 35°26' E 139°42'2 3.9
2017-Dec-11 06:01N 35°27' E 139°43'1 1.8
2017-Dec-11 05:31N 35°28' E 139°42'1 2.3
2017-Dec-11 05:00N 35°28' E 139°40'1 2.3
2017-Dec-11 04:30N 35°27' E 139°39'0 0.0
2017-Dec-11 04:00N 35°27' E 139°39'0 0.0
2017-Dec-11 03:31N 35°27' E 139°39'0 0.0
2017-Dec-11 03:00N 35°27' E 139°39'0 0.0
2017-Dec-11 02:31N 35°27' E 139°39'0 0.1
2017-Dec-11 02:00N 35°27' E 139°39'0 0.1
2017-Dec-11 01:31N 35°27' E 139°39'0 0.0
2017-Dec-11 01:00N 35°27' E 139°39'0 0.1
2017-Dec-11 00:30N 35°27' E 139°39'0 0.0
2017-Dec-11 00:01N 35°27' E 139°39'0 0.1
2017-Dec-10 23:30N 35°27' E 139°39'0 0.1
2017-Dec-10 23:01N 35°27' E 139°39'0 0.1
2017-Dec-10 22:31N 35°27' E 139°39'1 1.5
2017-Dec-10 22:01N 35°27' E 139°40'1 2.7
2017-Dec-10 21:31N 35°27' E 139°42'2 3.8
2017-Dec-10 21:01N 35°27' E 139°40'0 0.0
2017-Dec-10 20:30N 35°27' E 139°40'0 0.0
2017-Dec-10 07:10N 35°27' E 139°40'0 0.0
2017-Dec-10 07:00N 35°27' E 139°40'0 0.0
2017-Dec-10 06:30N 35°27' E 139°40'0 0.1
2017-Dec-10 06:00N 35°27' E 139°40'0 0.0
2017-Dec-10 05:30N 35°27' E 139°40'0 0.0
2017-Dec-10 05:00N 35°27' E 139°40'0 0.0
2017-Dec-10 04:30N 35°27' E 139°40'0 0.6
2017-Dec-10 04:01N 35°27' E 139°40'2 3.2
2017-Dec-10 03:30N 35°28' E 139°41'4 7.1
2017-Dec-10 03:00N 35°30' E 139°45'0 0.0
2017-Dec-10 02:30N 35°30' E 139°45'0 0.0
2017-Dec-10 02:00N 35°30' E 139°45'1 2.4
2017-Dec-10 01:30N 35°30' E 139°43'0 0.7
2017-Dec-10 01:00N 35°29' E 139°43'0 0.2
2017-Dec-10 00:31N 35°29' E 139°43'3 6.2
2017-Dec-10 00:00N 35°28' E 139°40'1 1.7
2017-Dec-09 23:30N 35°27' E 139°40'0 0.0
2017-Dec-09 23:00N 35°27' E 139°40'0 0.0
2017-Dec-09 22:30N 35°27' E 139°40'0 0.0
2017-Dec-08 23:56N 35°27' E 139°40'4 9.6
2017-Dec-08 23:31N 35°30' E 139°43'1 1.4
2017-Dec-08 23:00N 35°30' E 139°44'2 4.1
2017-Dec-08 22:31N 35°29' E 139°42'2 3.5
2017-Dec-08 22:00N 35°27' E 139°43'1 1.8
2017-Dec-08 21:30N 35°27' E 139°42'0 0.0
2017-Dec-08 21:01N 35°27' E 139°42'0 0.0
2017-Dec-08 20:30N 35°27' E 139°42'0 0.0
2017-Dec-08 20:01N 35°27' E 139°42'0 0.0
2017-Dec-08 19:30N 35°27' E 139°42'0 0.0
2017-Dec-08 19:01N 35°27' E 139°42'0 0.1
2017-Dec-08 18:30N 35°27' E 139°42'0 0.0
2017-Dec-08 18:01N 35°27' E 139°42'0 0.1
2017-Dec-08 17:30N 35°27' E 139°42'1 2.3
2017-Dec-08 17:00N 35°27' E 139°41'0 0.0
2017-Dec-08 16:30N 35°27' E 139°41'1 2.1
2017-Dec-08 16:00N 35°27' E 139°40'0 0.0
2017-Dec-08 15:30N 35°27' E 139°40'0 0.0
2017-Dec-08 15:01N 35°27' E 139°40'0 0.0
2017-Dec-08 14:30N 35°27' E 139°40'0 0.0
2017-Dec-08 14:00N 35°27' E 139°40'0 0.0
2017-Dec-08 13:30N 35°27' E 139°40'0 0.0
2017-Dec-08 13:00N 35°27' E 139°40'0 0.0
2017-Dec-08 12:30N 35°27' E 139°40'0 0.0
2017-Dec-08 12:01N 35°27' E 139°40'0 0.0
2017-Dec-08 11:31N 35°27' E 139°40'0 0.0
2017-Dec-08 11:00N 35°27' E 139°40'0 0.0
2017-Dec-08 10:30N 35°27' E 139°40'0 0.0
2017-Dec-08 10:00N 35°27' E 139°40'0 0.0
2017-Dec-08 09:31N 35°27' E 139°40'0 0.0
2017-Dec-08 09:00N 35°27' E 139°40'0 0.0
2017-Dec-08 08:30N 35°27' E 139°40'0 0.0
2017-Dec-08 08:00N 35°27' E 139°40'0 0.0
2017-Dec-08 07:30N 35°27' E 139°40'1 1.8
2017-Dec-08 07:01N 35°28' E 139°40'611.3
2017-Dec-08 06:30N 35°31' E 139°46'1 1.7
2017-Dec-08 06:01N 35°31' E 139°46'0 0.2
2017-Dec-08 05:31N 35°31' E 139°46'2 3.0
2017-Dec-08 05:00N 35°30' E 139°47'1 1.9
2017-Dec-08 04:30N 35°29' E 139°47'0 0.0
2017-Dec-08 04:00N 35°29' E 139°47'0 0.0
2017-Dec-08 03:30N 35°29' E 139°47'0 0.0
2017-Dec-08 03:00N 35°29' E 139°47'3 5.6
2017-Dec-08 02:30N 35°28' E 139°44'1 1.1
2017-Dec-08 02:00N 35°28' E 139°43'0 0.0
2017-Dec-08 01:30N 35°28' E 139°43'0 0.6
2017-Dec-08 01:00N 35°27' E 139°43'2 4.3
2017-Dec-08 00:30N 35°26' E 139°45'2 4.9
2017-Dec-08 00:00N 35°27' E 139°42'0 0.0
2017-Dec-07 23:31N 35°27' E 139°42'0 0.0
2017-Dec-07 23:00N 35°27' E 139°42'1 2.7
2017-Dec-07 22:30N 35°27' E 139°41'1 2.0
2017-Dec-07 22:00N 35°27' E 139°39'2 3.3
2017-Dec-07 21:30N 35°27' E 139°41'2 3.0
2017-Dec-07 21:00N 35°27' E 139°40'0 0.0
2017-Dec-07 20:30N 35°27' E 139°40'0 0.0
2017-Dec-07 07:11N 35°27' E 139°40'0 0.0
2017-Dec-07 07:01N 35°27' E 139°40'0 0.0
2017-Dec-07 06:30N 35°27' E 139°40'0 0.0
2017-Dec-07 06:00N 35°27' E 139°40'2 3.9
2017-Dec-07 05:30N 35°26' E 139°42'3 5.2
2017-Dec-07 05:01N 35°27' E 139°39'0 0.2
2017-Dec-07 04:31N 35°27' E 139°39'0 0.9
2017-Dec-07 04:00N 35°27' E 139°39'0 0.0
2017-Dec-07 03:31N 35°27' E 139°39'0 0.5
2017-Dec-07 03:00N 35°27' E 139°39'4 7.5
2017-Dec-07 02:31N 35°27' E 139°44'4 8.3
2017-Dec-07 02:01N 35°28' E 139°49'4 6.9
2017-Dec-07 01:22N 35°30' E 139°54'3 8.0
2017-Dec-07 01:00N 35°29' E 139°57'1 2.1
2017-Dec-07 00:30N 35°28' E 139°58'0 0.0
2017-Dec-07 00:00N 35°28' E 139°58'4 7.6
2017-Dec-06 23:31N 35°29' E 139°53'611.0
2017-Dec-06 23:01N 35°26' E 139°47'611.0
2017-Dec-06 22:30N 35°27' E 139°41'1 1.5
2017-Dec-06 22:01N 35°27' E 139°40'  
2017-Dec-04 10:30N 35°27' E 139°40'0 0.0
2017-Dec-04 10:00N 35°27' E 139°40'0 0.0
2017-Dec-04 09:31N 35°27' E 139°40'0 0.0
2017-Dec-04 09:01N 35°27' E 139°40'0 0.0
2017-Dec-04 08:30N 35°27' E 139°40'4 7.2
2017-Dec-04 08:01N 35°28' E 139°44'3 5.2
2017-Dec-04 07:30N 35°30' E 139°46'0 0.0
2017-Dec-04 07:00N 35°30' E 139°46'3 5.3
2017-Dec-04 06:31N 35°28' E 139°44'4 7.1
2017-Dec-04 06:01N 35°28' E 139°39'0 0.8
2017-Dec-04 05:31N 35°27' E 139°39'0 0.0
2017-Dec-04 05:01N 35°27' E 139°39'0 0.0
2017-Dec-04 04:30N 35°27' E 139°39'0 0.0
2017-Dec-04 04:00N 35°27' E 139°39'0 0.4
2017-Dec-04 03:31N 35°27' E 139°40'0 1.0
2017-Dec-04 03:01N 35°27' E 139°40'2 3.0
2017-Dec-04 02:30N 35°28' E 139°42'1 1.5
2017-Dec-04 02:00N 35°28' E 139°42'1 1.8
2017-Dec-04 01:30N 35°28' E 139°43'0 0.0
2017-Dec-04 01:00N 35°28' E 139°43'0 0.2
2017-Dec-04 00:31N 35°28' E 139°43'2 4.0
2017-Dec-04 00:00N 35°26' E 139°45'2 4.7
2017-Dec-03 23:30N 35°27' E 139°42'2 3.9
2017-Dec-03 23:01N 35°27' E 139°40'0 0.0
2017-Dec-03 22:30N 35°27' E 139°40'0 0.0
2017-Dec-02 07:11N 35°27' E 139°40'0 0.0
2017-Dec-02 07:01N 35°27' E 139°40'0 0.0
2017-Dec-02 06:31N 35°27' E 139°40'0 0.2
2017-Dec-02 06:01N 35°27' E 139°40'0 0.2
2017-Dec-02 05:31N 35°27' E 139°39'0 0.1
2017-Dec-02 05:01N 35°27' E 139°39'0 0.1
2017-Dec-02 04:31N 35°27' E 139°39'0 0.0
2017-Dec-02 04:01N 35°27' E 139°39'0 0.0
2017-Dec-02 03:31N 35°27' E 139°39'0 0.0
2017-Dec-02 03:01N 35°27' E 139°39'0 0.1
2017-Dec-02 02:31N 35°27' E 139°39'0 0.0
2017-Dec-02 02:01N 35°27' E 139°39'1 2.2
2017-Dec-02 01:30N 35°27' E 139°41'4 7.3
2017-Dec-02 01:01N 35°23' E 139°41'3 5.2
2017-Dec-02 00:31N 35°25' E 139°38'2 3.0
2017-Dec-02 00:01N 35°24' E 139°40'1 1.9
2017-Dec-01 23:31N 35°23' E 139°41'4 7.5
2017-Dec-01 23:00N 35°27' E 139°41'2 3.1
2017-Dec-01 22:30N 35°27' E 139°40'0 0.0
2017-Dec-01 22:00N 35°27' E 139°40'  
Track history (hours):
 
Tides and Currents Weather Stations Pressure Air Temp Water Temp Dewpoint Dewpoint Depression Visibility Wind Speed Wind Dir Waves Ship Positions

Chitose

Last reported at 2017-Dec-11 17:01 UTC. Time now 2017-Dec-12 10:19 UTC.
Position N 35°24' E 139°41'.

Length 33 m; draft 3.8 m.

Type: Tug. MMSI: 431000953.

Date/timePositionNaut miles runAvg speedWind from/ knotsBaromVisibWave heightAir tempDewpointWater temp
2017-Dec-11 17:01N 35°24' E 139°41'0 0.0
2017-Dec-11 16:31N 35°24' E 139°41'0 0.1
2017-Dec-11 16:01N 35°24' E 139°41'0 0.1
2017-Dec-11 15:31N 35°24' E 139°41'1 1.9
2017-Dec-11 15:01N 35°24' E 139°42'4 7.5
2017-Dec-11 14:31N 35°27' E 139°40'2 4.4
2017-Dec-11 14:00N 35°28' E 139°42'0 0.0
2017-Dec-11 13:30N 35°28' E 139°42'0 0.0
2017-Dec-11 13:01N 35°28' E 139°42'2 4.1
2017-Dec-11 12:31N 35°28' E 139°45'1 1.0
2017-Dec-11 12:00N 35°29' E 139°44'0 0.3
2017-Dec-11 11:30N 35°29' E 139°45'1 2.7
2017-Dec-11 11:00N 35°28' E 139°46'0 0.5
2017-Dec-11 10:31N 35°28' E 139°46'1 2.4
2017-Dec-11 10:01N 35°29' E 139°45'0 0.3
2017-Dec-11 09:31N 35°29' E 139°44'2 3.3
2017-Dec-11 09:00N 35°27' E 139°44'3 6.0
2017-Dec-11 08:31N 35°25' E 139°42'1 1.7
2017-Dec-11 08:00N 35°25' E 139°41'0 0.1
2017-Dec-11 07:31N 35°25' E 139°41'1 1.5
2017-Dec-11 07:00N 35°26' E 139°42'0 0.0
2017-Dec-11 06:30N 35°26' E 139°42'2 3.9
2017-Dec-11 06:01N 35°27' E 139°43'1 1.8
2017-Dec-11 05:31N 35°28' E 139°42'1 2.3
2017-Dec-11 05:00N 35°28' E 139°40'1 2.3
2017-Dec-11 04:30N 35°27' E 139°39'0 0.0
2017-Dec-11 04:00N 35°27' E 139°39'0 0.0
2017-Dec-11 03:31N 35°27' E 139°39'0 0.0
2017-Dec-11 03:00N 35°27' E 139°39'0 0.0
2017-Dec-11 02:31N 35°27' E 139°39'0 0.1
2017-Dec-11 02:00N 35°27' E 139°39'0 0.1
2017-Dec-11 01:31N 35°27' E 139°39'0 0.0
2017-Dec-11 01:00N 35°27' E 139°39'0 0.1
2017-Dec-11 00:30N 35°27' E 139°39'0 0.0
2017-Dec-11 00:01N 35°27' E 139°39'0 0.1
2017-Dec-10 23:30N 35°27' E 139°39'0 0.1
2017-Dec-10 23:01N 35°27' E 139°39'0 0.1
2017-Dec-10 22:31N 35°27' E 139°39'1 1.5
2017-Dec-10 22:01N 35°27' E 139°40'1 2.7
2017-Dec-10 21:31N 35°27' E 139°42'2 3.8
2017-Dec-10 21:01N 35°27' E 139°40'0 0.0
2017-Dec-10 20:30N 35°27' E 139°40'0 0.0
2017-Dec-10 07:10N 35°27' E 139°40'0 0.0
2017-Dec-10 07:00N 35°27' E 139°40'0 0.0
2017-Dec-10 06:30N 35°27' E 139°40'0 0.1
2017-Dec-10 06:00N 35°27' E 139°40'0 0.0
2017-Dec-10 05:30N 35°27' E 139°40'0 0.0
2017-Dec-10 05:00N 35°27' E 139°40'0 0.0
2017-Dec-10 04:30N 35°27' E 139°40'0 0.6
2017-Dec-10 04:01N 35°27' E 139°40'2 3.2
2017-Dec-10 03:30N 35°28' E 139°41'4 7.1
2017-Dec-10 03:00N 35°30' E 139°45'0 0.0
2017-Dec-10 02:30N 35°30' E 139°45'0 0.0
2017-Dec-10 02:00N 35°30' E 139°45'1 2.4
2017-Dec-10 01:30N 35°30' E 139°43'0 0.7
2017-Dec-10 01:00N 35°29' E 139°43'0 0.2
2017-Dec-10 00:31N 35°29' E 139°43'3 6.2
2017-Dec-10 00:00N 35°28' E 139°40'1 1.7
2017-Dec-09 23:30N 35°27' E 139°40'0 0.0
2017-Dec-09 23:00N 35°27' E 139°40'0 0.0
2017-Dec-09 22:30N 35°27' E 139°40'0 0.0
2017-Dec-08 23:56N 35°27' E 139°40'4 9.6
2017-Dec-08 23:31N 35°30' E 139°43'1 1.4
2017-Dec-08 23:00N 35°30' E 139°44'2 4.1
2017-Dec-08 22:31N 35°29' E 139°42'2 3.5
2017-Dec-08 22:00N 35°27' E 139°43'1 1.8
2017-Dec-08 21:30N 35°27' E 139°42'0 0.0
2017-Dec-08 21:01N 35°27' E 139°42'0 0.0
2017-Dec-08 20:30N 35°27' E 139°42'0 0.0
2017-Dec-08 20:01N 35°27' E 139°42'0 0.0
2017-Dec-08 19:30N 35°27' E 139°42'0 0.0
2017-Dec-08 19:01N 35°27' E 139°42'0 0.1
2017-Dec-08 18:30N 35°27' E 139°42'0 0.0
2017-Dec-08 18:01N 35°27' E 139°42'0 0.1
2017-Dec-08 17:30N 35°27' E 139°42'1 2.3
2017-Dec-08 17:00N 35°27' E 139°41'0 0.0
2017-Dec-08 16:30N 35°27' E 139°41'1 2.1
2017-Dec-08 16:00N 35°27' E 139°40'0 0.0
2017-Dec-08 15:30N 35°27' E 139°40'0 0.0
2017-Dec-08 15:01N 35°27' E 139°40'0 0.0
2017-Dec-08 14:30N 35°27' E 139°40'0 0.0
2017-Dec-08 14:00N 35°27' E 139°40'0 0.0
2017-Dec-08 13:30N 35°27' E 139°40'0 0.0
2017-Dec-08 13:00N 35°27' E 139°40'0 0.0
2017-Dec-08 12:30N 35°27' E 139°40'0 0.0
2017-Dec-08 12:01N 35°27' E 139°40'0 0.0
2017-Dec-08 11:31N 35°27' E 139°40'0 0.0
2017-Dec-08 11:00N 35°27' E 139°40'0 0.0
2017-Dec-08 10:30N 35°27' E 139°40'0 0.0
2017-Dec-08 10:00N 35°27' E 139°40'0 0.0
2017-Dec-08 09:31N 35°27' E 139°40'0 0.0
2017-Dec-08 09:00N 35°27' E 139°40'0 0.0
2017-Dec-08 08:30N 35°27' E 139°40'0 0.0
2017-Dec-08 08:00N 35°27' E 139°40'0 0.0
2017-Dec-08 07:30N 35°27' E 139°40'1 1.8
2017-Dec-08 07:01N 35°28' E 139°40'611.3
2017-Dec-08 06:30N 35°31' E 139°46'1 1.7
2017-Dec-08 06:01N 35°31' E 139°46'0 0.2
2017-Dec-08 05:31N 35°31' E 139°46'2 3.0
2017-Dec-08 05:00N 35°30' E 139°47'1 1.9
2017-Dec-08 04:30N 35°29' E 139°47'0 0.0
2017-Dec-08 04:00N 35°29' E 139°47'0 0.0
2017-Dec-08 03:30N 35°29' E 139°47'0 0.0
2017-Dec-08 03:00N 35°29' E 139°47'3 5.6
2017-Dec-08 02:30N 35°28' E 139°44'1 1.1
2017-Dec-08 02:00N 35°28' E 139°43'0 0.0
2017-Dec-08 01:30N 35°28' E 139°43'0 0.6
2017-Dec-08 01:00N 35°27' E 139°43'2 4.3
2017-Dec-08 00:30N 35°26' E 139°45'2 4.9
2017-Dec-08 00:00N 35°27' E 139°42'0 0.0
2017-Dec-07 23:31N 35°27' E 139°42'0 0.0
2017-Dec-07 23:00N 35°27' E 139°42'1 2.7
2017-Dec-07 22:30N 35°27' E 139°41'1 2.0
2017-Dec-07 22:00N 35°27' E 139°39'2 3.3
2017-Dec-07 21:30N 35°27' E 139°41'2 3.0
2017-Dec-07 21:00N 35°27' E 139°40'0 0.0
2017-Dec-07 20:30N 35°27' E 139°40'0 0.0
2017-Dec-07 07:11N 35°27' E 139°40'0 0.0
2017-Dec-07 07:01N 35°27' E 139°40'0 0.0
2017-Dec-07 06:30N 35°27' E 139°40'0 0.0
2017-Dec-07 06:00N 35°27' E 139°40'2 3.9
2017-Dec-07 05:30N 35°26' E 139°42'3 5.2
2017-Dec-07 05:01N 35°27' E 139°39'0 0.2
2017-Dec-07 04:31N 35°27' E 139°39'0 0.9
2017-Dec-07 04:00N 35°27' E 139°39'0 0.0
2017-Dec-07 03:31N 35°27' E 139°39'0 0.5
2017-Dec-07 03:00N 35°27' E 139°39'4 7.5
2017-Dec-07 02:31N 35°27' E 139°44'4 8.3
2017-Dec-07 02:01N 35°28' E 139°49'4 6.9
2017-Dec-07 01:22N 35°30' E 139°54'3 8.0
2017-Dec-07 01:00N 35°29' E 139°57'1 2.1
2017-Dec-07 00:30N 35°28' E 139°58'0 0.0
2017-Dec-07 00:00N 35°28' E 139°58'4 7.6
2017-Dec-06 23:31N 35°29' E 139°53'611.0
2017-Dec-06 23:01N 35°26' E 139°47'611.0
2017-Dec-06 22:30N 35°27' E 139°41'1 1.5
2017-Dec-06 22:01N 35°27' E 139°40'  
2017-Dec-04 10:30N 35°27' E 139°40'0 0.0
2017-Dec-04 10:00N 35°27' E 139°40'0 0.0
2017-Dec-04 09:31N 35°27' E 139°40'0 0.0
2017-Dec-04 09:01N 35°27' E 139°40'0 0.0
2017-Dec-04 08:30N 35°27' E 139°40'4 7.2
2017-Dec-04 08:01N 35°28' E 139°44'3 5.2
2017-Dec-04 07:30N 35°30' E 139°46'0 0.0
2017-Dec-04 07:00N 35°30' E 139°46'3 5.3
2017-Dec-04 06:31N 35°28' E 139°44'4 7.1
2017-Dec-04 06:01N 35°28' E 139°39'0 0.8
2017-Dec-04 05:31N 35°27' E 139°39'0 0.0
2017-Dec-04 05:01N 35°27' E 139°39'0 0.0
2017-Dec-04 04:30N 35°27' E 139°39'0 0.0
2017-Dec-04 04:00N 35°27' E 139°39'0 0.4
2017-Dec-04 03:31N 35°27' E 139°40'0 1.0
2017-Dec-04 03:01N 35°27' E 139°40'2 3.0
2017-Dec-04 02:30N 35°28' E 139°42'1 1.5
2017-Dec-04 02:00N 35°28' E 139°42'1 1.8
2017-Dec-04 01:30N 35°28' E 139°43'0 0.0
2017-Dec-04 01:00N 35°28' E 139°43'0 0.2
2017-Dec-04 00:31N 35°28' E 139°43'2 4.0
2017-Dec-04 00:00N 35°26' E 139°45'2 4.7
2017-Dec-03 23:30N 35°27' E 139°42'2 3.9
2017-Dec-03 23:01N 35°27' E 139°40'0 0.0
2017-Dec-03 22:30N 35°27' E 139°40'0 0.0
2017-Dec-02 07:11N 35°27' E 139°40'0 0.0
2017-Dec-02 07:01N 35°27' E 139°40'0 0.0
2017-Dec-02 06:31N 35°27' E 139°40'0 0.2
2017-Dec-02 06:01N 35°27' E 139°40'0 0.2
2017-Dec-02 05:31N 35°27' E 139°39'0 0.1
2017-Dec-02 05:01N 35°27' E 139°39'0 0.1
2017-Dec-02 04:31N 35°27' E 139°39'0 0.0
2017-Dec-02 04:01N 35°27' E 139°39'0 0.0
2017-Dec-02 03:31N 35°27' E 139°39'0 0.0
2017-Dec-02 03:01N 35°27' E 139°39'0 0.1
2017-Dec-02 02:31N 35°27' E 139°39'0 0.0
2017-Dec-02 02:01N 35°27' E 139°39'1 2.2
2017-Dec-02 01:30N 35°27' E 139°41'4 7.3
2017-Dec-02 01:01N 35°23' E 139°41'3 5.2
2017-Dec-02 00:31N 35°25' E 139°38'2 3.0
2017-Dec-02 00:01N 35°24' E 139°40'1 1.9
2017-Dec-01 23:31N 35°23' E 139°41'4 7.5
2017-Dec-01 23:00N 35°27' E 139°41'2 3.1
2017-Dec-01 22:30N 35°27' E 139°40'0 0.0
2017-Dec-01 22:00N 35°27' E 139°40'  

Dump ship's entire track history